Time;durP1;ratioP1;P1;durP2;ratioP2;P2;SDS_P1;SDS_P2;PMS_P1;PMS_P2;Temp;Humidity;BMP_temperature;BMP_pressure;BME280_temperature;BME280_humidity;BME280_pressure;Samples;Min_cycle;Max_cycle;Signal;HPM_P1;HPM_P2
2021/11/26 00:00:20;;;;;;;4.50;1.57;;;5.20;99.90;;;;;;4890314;29;21225;-78
2021/11/26 00:02:48;;;;;;;7.77;2.20;;;5.00;99.90;;;;;;4897454;29;20598;-79
2021/11/26 00:05:16;;;;;;;4.77;1.63;;;4.90;99.90;;;;;;4896336;29;20495;-77
2021/11/26 00:07:44;;;;;;;6.40;2.10;;;4.90;99.90;;;;;;4898006;29;21028;-78
2021/11/26 00:10:14;;;;;;;6.10;1.67;;;5.00;99.90;;;;;;4897058;29;20983;-77
2021/11/26 00:12:50;;;;;;;5.50;1.70;;;5.00;99.90;;;;;;4897592;29;20241;-79
2021/11/26 00:15:22;;;;;;;5.87;1.70;;;5.00;99.90;;;;;;4890835;29;20521;-78
2021/11/26 00:17:52;;;;;;;7.13;1.57;;;4.90;99.90;;;;;;4887044;29;20584;-78
2021/11/26 00:20:20;;;;;;;8.33;2.40;;;5.00;99.90;;;;;;4890850;29;20974;-78
2021/11/26 00:22:49;;;;;;;5.30;1.73;;;5.20;99.90;;;;;;4892348;29;20488;-77
2021/11/26 00:25:18;;;;;;;5.57;1.83;;;5.00;99.90;;;;;;4899194;29;21049;-77
2021/11/26 00:27:48;;;;;;;10.23;2.03;;;5.10;99.90;;;;;;4897398;29;20482;-78
2021/11/26 00:30:16;;;;;;;5.53;1.53;;;5.10;99.90;;;;;;4902858;29;21045;-78
2021/11/26 00:32:45;;;;;;;8.33;1.90;;;5.30;99.90;;;;;;4895216;29;20485;-78
2021/11/26 00:35:13;;;;;;;8.80;2.10;;;5.20;99.90;;;;;;4896932;29;20891;-78
2021/11/26 00:37:41;;;;;;;7.23;1.70;;;5.30;99.90;;;;;;4902201;29;20484;-77
2021/11/26 00:40:10;;;;;;;4.93;1.50;;;5.30;99.90;;;;;;4890942;29;20329;-78
2021/11/26 00:42:41;;;;;;;6.80;1.90;;;5.30;99.90;;;;;;4893059;29;20479;-79
2021/11/26 00:45:11;;;;;;;6.67;2.03;;;5.30;99.90;;;;;;4899225;29;20910;-77
2021/11/26 00:47:40;;;;;;;7.90;2.10;;;5.10;99.90;;;;;;4894973;29;20908;-78
2021/11/26 00:50:10;;;;;;;7.73;2.20;;;5.00;99.90;;;;;;4901466;29;20492;-78
2021/11/26 00:52:38;;;;;;;7.60;1.93;;;5.00;99.90;;;;;;4892286;29;20473;-77
2021/11/26 00:55:07;;;;;;;7.13;2.30;;;4.90;99.90;;;;;;4903689;29;20491;-78
2021/11/26 00:57:36;;;;;;;7.80;2.50;;;4.90;99.90;;;;;;4897804;29;20692;-77
2021/11/26 01:00:09;;;;;;;6.47;2.57;;;4.80;99.90;;;;;;4890205;29;20474;-77
2021/11/26 01:02:38;;;;;;;6.03;2.60;;;4.80;99.90;;;;;;4897872;29;20530;-77
2021/11/26 01:05:08;;;;;;;6.47;3.10;;;4.90;99.90;;;;;;4904484;29;20488;-78
2021/11/26 01:07:36;;;;;;;6.60;3.10;;;4.90;99.90;;;;;;4900219;29;20490;-76
2021/11/26 01:10:05;;;;;;;7.63;3.43;;;4.90;99.90;;;;;;4892746;29;20233;-78
2021/11/26 01:12:34;;;;;;;6.87;3.17;;;5.10;99.90;;;;;;4902142;29;20491;-78
2021/11/26 01:15:06;;;;;;;7.87;3.50;;;5.00;99.90;;;;;;4901253;29;20523;-77
2021/11/26 01:17:36;;;;;;;8.37;3.17;;;5.00;99.90;;;;;;4902123;29;20491;-77
2021/11/26 01:20:06;;;;;;;8.87;3.00;;;4.90;99.90;;;;;;4894401;29;20483;-77
2021/11/26 01:22:35;;;;;;;5.03;3.33;;;5.00;99.90;;;;;;4892956;29;21081;-78
2021/11/26 01:25:04;;;;;;;7.27;3.17;;;5.00;99.90;;;;;;4896530;29;20885;-77
2021/11/26 01:27:32;;;;;;;10.73;3.80;;;5.00;99.90;;;;;;4897185;29;20484;-78
2021/11/26 01:30:05;;;;;;;7.10;3.10;;;5.00;99.90;;;;;;4889838;29;20487;-78
2021/11/26 01:32:34;;;;;;;7.70;3.20;;;4.90;99.90;;;;;;4901916;29;20484;-78
2021/11/26 01:35:02;;;;;;;8.37;3.47;;;4.90;99.90;;;;;;4899321;29;20480;-78
2021/11/26 01:37:31;;;;;;;9.43;4.03;;;4.80;99.90;;;;;;4896082;29;20510;-77
2021/11/26 01:39:59;;;;;;;10.97;4.03;;;4.80;99.90;;;;;;4893960;29;20556;-78
2021/11/26 01:42:27;;;;;;;8.90;4.03;;;4.80;99.90;;;;;;4894237;29;20492;-77
2021/11/26 01:44:55;;;;;;;8.60;4.00;;;4.90;99.90;;;;;;4900742;29;20581;-77
2021/11/26 01:47:24;;;;;;;8.97;4.60;;;4.80;99.90;;;;;;4902643;29;20474;-78
2021/11/26 01:49:53;;;;;;;11.73;4.47;;;4.80;99.90;;;;;;4894247;29;20491;-78
2021/11/26 01:52:21;;;;;;;9.23;4.43;;;4.80;99.90;;;;;;4899599;29;21117;-77
2021/11/26 01:54:50;;;;;;;10.30;5.07;;;4.80;99.90;;;;;;4892667;29;20484;-78
2021/11/26 01:57:19;;;;;;;9.20;5.10;;;4.80;99.90;;;;;;4896806;29;20606;-79
2021/11/26 01:59:48;;;;;;;10.13;5.10;;;4.90;99.90;;;;;;4895422;29;20485;-77
2021/11/26 02:02:17;;;;;;;9.13;5.13;;;4.90;99.90;;;;;;4892836;29;20555;-78
2021/11/26 02:04:46;;;;;;;10.40;5.53;;;4.90;99.90;;;;;;4896569;29;20484;-78
2021/11/26 02:07:15;;;;;;;10.63;5.60;;;5.00;99.90;;;;;;4900996;29;21038;-78
2021/11/26 02:09:44;;;;;;;7.70;5.03;;;4.90;99.90;;;;;;4894741;29;21277;-77
2021/11/26 02:12:12;;;;;;;9.90;5.23;;;5.00;99.90;;;;;;4907169;29;21295;-78
2021/11/26 02:14:41;;;;;;;12.60;5.20;;;5.00;99.90;;;;;;4893354;29;20477;-78
2021/11/26 02:17:09;;;;;;;11.47;6.27;;;4.90;99.90;;;;;;4904610;29;20485;-79
2021/11/26 02:19:38;;;;;;;7.93;4.93;;;4.90;99.90;;;;;;4898592;29;20504;-78
2021/11/26 02:22:07;;;;;;;10.60;5.30;;;4.90;99.90;;;;;;4892106;29;20484;-77
2021/11/26 02:24:35;;;;;;;9.37;5.10;;;4.90;99.90;;;;;;4892073;29;20483;-78
2021/11/26 02:27:05;;;;;;;8.50;5.07;;;4.90;99.90;;;;;;4901073;29;20849;-77
2021/11/26 02:29:33;;;;;;;9.40;5.23;;;4.90;99.90;;;;;;4898056;29;21178;-79
2021/11/26 02:32:01;;;;;;;13.77;5.90;;;5.00;99.90;;;;;;4897509;29;21211;-78
2021/11/26 02:34:29;;;;;;;10.47;5.60;;;5.00;99.90;;;;;;4899916;29;20538;-77
2021/11/26 02:36:57;;;;;;;8.30;5.43;;;5.00;99.90;;;;;;4897297;29;20508;-78
2021/11/26 02:39:27;;;;;;;7.80;5.40;;;4.90;99.90;;;;;;4900023;29;20484;-78
2021/11/26 02:41:55;;;;;;;11.10;5.90;;;4.90;99.90;;;;;;4892613;29;20476;-78
2021/11/26 02:44:23;;;;;;;10.93;6.20;;;5.00;99.90;;;;;;4894152;29;20517;-78
2021/11/26 02:46:51;;;;;;;11.27;5.90;;;4.90;99.90;;;;;;4898154;29;20488;-78
2021/11/26 02:49:20;;;;;;;11.90;5.83;;;4.80;99.90;;;;;;4898313;29;21075;-77
2021/11/26 02:51:48;;;;;;;12.97;5.43;;;4.70;99.90;;;;;;4900298;29;20495;-78
2021/11/26 02:54:17;;;;;;;9.10;5.57;;;4.70;99.90;;;;;;4896805;29;20528;-78
2021/11/26 02:56:46;;;;;;;8.63;5.43;;;4.70;99.90;;;;;;4899050;29;20488;-77
2021/11/26 02:59:15;;;;;;;9.00;5.60;;;4.70;99.90;;;;;;4891916;29;20536;-78
2021/11/26 03:01:43;;;;;;;10.40;5.80;;;4.70;99.90;;;;;;4897650;29;20480;-77
2021/11/26 03:04:11;;;;;;;10.37;5.73;;;4.80;99.90;;;;;;4901533;29;20485;-77
2021/11/26 03:06:39;;;;;;;7.00;5.60;;;4.80;99.90;;;;;;4897433;29;20487;-78
2021/11/26 03:09:07;;;;;;;9.70;5.90;;;4.80;99.90;;;;;;4903229;29;20563;-78
2021/11/26 03:11:36;;;;;;;9.13;6.00;;;4.80;99.90;;;;;;4896719;29;20476;-76
2021/11/26 03:14:05;;;;;;;11.17;6.27;;;4.80;99.90;;;;;;4897975;29;20502;-77
2021/11/26 03:16:34;;;;;;;11.33;6.50;;;4.80;99.90;;;;;;4900031;29;20558;-77
2021/11/26 03:19:02;;;;;;;11.07;6.40;;;4.80;99.90;;;;;;4900981;29;20484;-77
2021/11/26 03:21:30;;;;;;;9.40;6.63;;;4.70;99.90;;;;;;4892048;29;20989;-78
2021/11/26 03:23:59;;;;;;;11.93;6.27;;;4.70;99.90;;;;;;4894599;29;20488;-77
2021/11/26 03:26:27;;;;;;;11.57;6.50;;;4.60;99.90;;;;;;4900569;29;20484;-77
2021/11/26 03:28:55;;;;;;;11.83;6.90;;;4.60;99.90;;;;;;4899892;29;20552;-77
2021/11/26 03:31:25;;;;;;;9.90;6.70;;;4.60;99.90;;;;;;4898041;29;20485;-77
2021/11/26 03:33:53;;;;;;;11.77;6.60;;;4.60;99.90;;;;;;4901573;29;20570;-78
2021/11/26 03:36:21;;;;;;;12.90;6.80;;;4.60;99.90;;;;;;4893901;29;20499;-78
2021/11/26 03:38:49;;;;;;;9.13;6.73;;;4.60;99.90;;;;;;4891603;29;20853;-77
2021/11/26 03:41:18;;;;;;;12.83;7.10;;;4.60;99.90;;;;;;4891148;29;21036;-77
2021/11/26 03:43:46;;;;;;;15.03;8.53;;;4.60;99.90;;;;;;4891096;29;21126;-76
2021/11/26 03:46:16;;;;;;;12.47;7.60;;;4.60;99.90;;;;;;4900590;29;20548;-78
2021/11/26 03:48:45;;;;;;;12.77;7.17;;;4.70;99.90;;;;;;4899419;29;20477;-78
2021/11/26 03:51:14;;;;;;;15.30;6.87;;;4.60;99.90;;;;;;4901056;29;20485;-77
2021/11/26 03:53:42;;;;;;;13.33;7.03;;;4.60;99.90;;;;;;4899852;29;20490;-78
2021/11/26 03:56:10;;;;;;;13.23;6.77;;;4.70;99.90;;;;;;4898583;29;20468;-78
2021/11/26 03:58:38;;;;;;;13.63;7.37;;;4.60;99.90;;;;;;4889183;29;20531;-77
2021/11/26 04:01:06;;;;;;;14.50;7.40;;;4.60;99.90;;;;;;4891034;29;20487;-78
2021/11/26 04:03:35;;;;;;;12.07;6.97;;;4.60;99.90;;;;;;4895307;29;20881;-78
2021/11/26 04:06:05;;;;;;;11.17;6.37;;;4.50;99.90;;;;;;4901996;29;20486;-78
2021/11/26 04:08:33;;;;;;;14.33;7.67;;;4.70;99.90;;;;;;4897579;29;20564;-77
2021/11/26 04:11:01;;;;;;;11.60;6.43;;;4.60;99.90;;;;;;4899070;29;20496;-77
2021/11/26 04:13:29;;;;;;;12.97;6.87;;;4.60;99.90;;;;;;4892381;29;20491;-78
2021/11/26 04:16:03;;;;;;;13.53;7.40;;;4.70;99.90;;;;;;4885732;29;21064;-77
2021/11/26 04:18:33;;;;;;;11.70;6.90;;;4.60;99.90;;;;;;4895697;29;20537;-78
2021/11/26 04:21:02;;;;;;;13.30;7.13;;;4.50;99.90;;;;;;4894516;29;20496;-77
2021/11/26 04:23:32;;;;;;;16.13;7.03;;;4.60;99.90;;;;;;4894767;29;20520;-78
2021/11/26 04:26:01;;;;;;;13.10;6.50;;;4.60;99.90;;;;;;4898507;29;21068;-78
2021/11/26 04:28:29;;;;;;;11.30;6.70;;;4.50;99.90;;;;;;4894838;29;20549;-78
2021/11/26 04:30:59;;;;;;;13.32;8.77;;;4.60;99.90;;;;;;4900469;29;20947;-78
2021/11/26 04:33:29;;;;;;;13.50;8.57;;;4.60;99.90;;;;;;4897577;29;20233;-78
2021/11/26 04:35:57;;;;;;;13.47;8.27;;;4.60;99.90;;;;;;4901494;29;20887;-78
2021/11/26 04:38:25;;;;;;;11.33;7.53;;;4.60;99.90;;;;;;4893467;29;20546;-78
2021/11/26 04:40:55;;;;;;;17.77;8.30;;;4.70;99.90;;;;;;4895995;29;20707;-77
2021/11/26 04:43:23;;;;;;;16.23;7.90;;;4.60;99.90;;;;;;4899131;29;20516;-78
2021/11/26 04:45:52;;;;;;;19.37;9.87;;;4.70;99.90;;;;;;4899272;29;20562;-78
2021/11/26 04:48:20;;;;;;;17.03;9.07;;;4.70;99.90;;;;;;4903149;29;20492;-77
2021/11/26 04:50:49;;;;;;;16.00;9.43;;;4.60;99.90;;;;;;4905324;29;20490;-78
2021/11/26 04:53:18;;;;;;;17.40;10.20;;;4.60;99.90;;;;;;4897007;29;20729;-77
2021/11/26 04:55:48;;;;;;;18.07;10.20;;;4.60;99.90;;;;;;4901700;29;20479;-78
2021/11/26 04:58:17;;;;;;;21.20;11.10;;;4.60;99.90;;;;;;4880784;29;20483;-78
2021/11/26 05:00:46;;;;;;;18.40;11.37;;;4.50;99.90;;;;;;4895597;29;20547;-78
2021/11/26 05:03:14;;;;;;;16.10;11.40;;;4.50;99.90;;;;;;4896362;29;21017;-78
2021/11/26 05:05:42;;;;;;;21.50;13.03;;;4.50;99.90;;;;;;4911674;29;20500;-78
2021/11/26 05:08:10;;;;;;;18.60;12.43;;;4.50;99.90;;;;;;4897827;29;20244;-78
2021/11/26 05:10:39;;;;;;;19.53;13.40;;;4.50;99.90;;;;;;4901394;29;20492;-77
2021/11/26 05:13:08;;;;;;;18.33;13.33;;;4.50;99.90;;;;;;4894710;29;21242;-78
2021/11/26 05:15:38;;;;;;;20.47;14.40;;;4.50;99.90;;;;;;4898488;29;20491;-78
2021/11/26 05:18:06;;;;;;;25.07;15.40;;;4.50;99.90;;;;;;4895121;29;20523;-78
2021/11/26 05:20:35;;;;;;;25.47;17.40;;;4.40;99.90;;;;;;4896829;29;20492;-77
2021/11/26 05:23:04;;;;;;;25.10;17.23;;;4.50;99.90;;;;;;4902857;29;20487;-77
2021/11/26 05:25:32;;;;;;;23.57;18.73;;;4.50;99.90;;;;;;4896298;29;21093;-78
2021/11/26 05:28:00;;;;;;;27.57;19.87;;;4.50;99.90;;;;;;4904912;29;21032;-77
2021/11/26 05:30:29;;;;;;;26.20;20.20;;;4.50;99.90;;;;;;4899866;29;20504;-78
2021/11/26 05:33:00;;;;;;;34.20;21.73;;;4.50;99.90;;;;;;4893044;29;20561;-77
2021/11/26 05:35:29;;;;;;;31.40;22.57;;;4.60;99.90;;;;;;4909231;29;20495;-78
2021/11/26 05:37:57;;;;;;;33.40;23.03;;;4.50;99.90;;;;;;4901642;29;20491;-77
2021/11/26 05:40:25;;;;;;;34.77;23.50;;;4.50;99.90;;;;;;4893644;29;20516;-78
2021/11/26 05:42:53;;;;;;;32.73;23.60;;;4.50;99.90;;;;;;4893089;29;20588;-78
2021/11/26 05:45:21;;;;;;;30.77;23.27;;;4.60;99.90;;;;;;4906016;29;20483;-78
2021/11/26 05:47:50;;;;;;;34.17;24.77;;;4.60;99.90;;;;;;4899651;29;21016;-78
2021/11/26 05:50:20;;;;;;;38.43;26.13;;;4.70;99.90;;;;;;4907175;29;20262;-78
2021/11/26 05:52:50;;;;;;;36.30;24.57;;;4.60;99.90;;;;;;4895055;29;20484;-78
2021/11/26 05:55:20;;;;;;;36.60;24.97;;;4.60;99.90;;;;;;4900976;29;20247;-79
2021/11/26 05:57:48;;;;;;;35.70;25.67;;;4.70;99.90;;;;;;4902006;29;20489;-79
2021/11/26 06:00:19;;;;;;;42.00;25.73;;;4.60;99.90;;;;;;4896675;29;20561;-78
2021/11/26 06:02:47;;;;;;;39.33;25.67;;;4.60;99.90;;;;;;4898549;29;20512;-78
2021/11/26 06:05:16;;;;;;;42.17;27.33;;;4.60;99.90;;;;;;4894787;29;20481;-78
2021/11/26 06:07:46;;;;;;;42.17;27.87;;;4.60;99.90;;;;;;4900644;29;20485;-78
2021/11/26 06:10:15;;;;;;;44.00;28.73;;;4.50;99.90;;;;;;4900568;29;20481;-77
2021/11/26 06:12:45;;;;;;;47.40;28.83;;;4.50;99.90;;;;;;4899223;29;20993;-77
2021/11/26 06:15:15;;;;;;;49.90;29.53;;;4.50;99.90;;;;;;4902700;29;20493;-78
2021/11/26 06:17:43;;;;;;;49.90;29.87;;;4.50;99.90;;;;;;4899380;29;20518;-78
2021/11/26 06:20:13;;;;;;;50.37;29.93;;;4.40;99.90;;;;;;4892875;29;20516;-77
2021/11/26 06:22:42;;;;;;;50.03;30.70;;;4.40;99.90;;;;;;4895474;29;20473;-78
2021/11/26 06:25:13;;;;;;;51.93;29.70;;;4.50;99.90;;;;;;4901714;29;20567;-79
2021/11/26 06:27:41;;;;;;;52.90;30.60;;;4.50;99.90;;;;;;4895413;29;20489;-78
2021/11/26 06:30:12;;;;;;;57.53;31.27;;;4.60;99.90;;;;;;4893755;29;21044;-78
2021/11/26 06:32:41;;;;;;;54.23;31.03;;;4.60;99.90;;;;;;4888305;29;20567;-78
2021/11/26 06:35:10;;;;;;;57.03;32.80;;;4.60;99.90;;;;;;4899784;29;21039;-78
2021/11/26 06:37:39;;;;;;;56.77;31.27;;;4.60;99.90;;;;;;4892396;29;20485;-78
2021/11/26 06:40:08;;;;;;;54.70;30.57;;;4.60;99.90;;;;;;4898453;29;20494;-77
2021/11/26 06:42:38;;;;;;;54.73;31.20;;;4.60;99.90;;;;;;4885080;29;20490;-78
2021/11/26 06:45:07;;;;;;;57.47;31.90;;;4.60;99.90;;;;;;4895538;29;20545;-78
2021/11/26 06:47:36;;;;;;;52.73;31.50;;;4.60;99.90;;;;;;4896715;29;21253;-78
2021/11/26 06:50:06;;;;;;;59.63;31.27;;;4.60;99.90;;;;;;4895946;29;20484;-77
2021/11/26 06:52:35;;;;;;;56.77;30.90;;;4.60;99.90;;;;;;4901442;29;21024;-78
2021/11/26 06:55:05;;;;;;;59.77;32.50;;;4.60;99.90;;;;;;4896191;29;20496;-78
2021/11/26 06:57:34;;;;;;;51.30;29.33;;;4.70;99.90;;;;;;4892595;29;20513;-78
2021/11/26 07:00:05;;;;;;;62.10;34.17;;;4.60;99.90;;;;;;4894690;29;20478;-78
2021/11/26 07:02:37;;;;;;;57.83;31.30;;;4.60;99.90;;;;;;4897784;29;20546;-79
2021/11/26 07:05:06;;;;;;;59.47;31.63;;;4.60;99.90;;;;;;4887513;29;20542;-79
2021/11/26 07:07:35;;;;;;;58.97;31.20;;;4.60;99.90;;;;;;4888521;29;21221;-78
2021/11/26 07:10:05;;;;;;;61.00;34.50;;;4.60;99.90;;;;;;4890816;29;20521;-78
2021/11/26 07:12:34;;;;;;;59.90;33.33;;;4.70;99.90;;;;;;4893987;29;21393;-79
2021/11/26 07:15:05;;;;;;;55.27;29.63;;;4.70;99.90;;;;;;4884855;29;20486;-78
2021/11/26 07:17:34;;;;;;;56.13;32.40;;;4.60;99.90;;;;;;4887325;29;20561;-78
2021/11/26 07:20:04;;;;;;;53.17;29.60;;;4.70;99.90;;;;;;4873153;29;20545;-78
2021/11/26 07:22:32;;;;;;;54.93;31.10;;;4.70;99.90;;;;;;4882579;29;20496;-78
2021/11/26 07:25:01;;;;;;;49.60;29.60;;;4.70;99.90;;;;;;4882137;29;20958;-79
2021/11/26 07:27:29;;;;;;;53.80;28.47;;;4.70;99.90;;;;;;4883901;29;20474;-78
2021/11/26 07:29:57;;;;;;;52.03;27.90;;;4.70;99.90;;;;;;4885227;29;20548;-78
2021/11/26 07:32:27;;;;;;;51.80;28.70;;;4.70;99.90;;;;;;4884621;29;20496;-78
2021/11/26 07:34:55;;;;;;;47.27;26.90;;;4.60;99.90;;;;;;4885234;29;21219;-78
2021/11/26 07:37:25;;;;;;;44.90;26.77;;;4.70;99.90;;;;;;4885897;29;20488;-78
2021/11/26 07:39:53;;;;;;;45.17;26.20;;;4.70;99.90;;;;;;4885158;29;20489;-79
2021/11/26 07:42:22;;;;;;;40.70;24.77;;;4.70;99.90;;;;;;4885055;29;20911;-78
2021/11/26 07:44:50;;;;;;;45.37;26.87;;;4.70;99.90;;;;;;4884266;29;20528;-79
2021/11/26 07:47:19;;;;;;;44.60;25.10;;;4.70;99.90;;;;;;4885948;29;21030;-78
2021/11/26 07:49:52;;;;;;;44.47;24.93;;;4.70;99.90;;;;;;4885473;29;20495;-78
2021/11/26 07:52:22;;;;;;;39.97;24.27;;;4.70;99.90;;;;;;4884438;29;20485;-78
2021/11/26 07:54:51;;;;;;;40.73;25.87;;;4.70;99.90;;;;;;4884707;29;20907;-77
2021/11/26 07:57:19;;;;;;;41.70;24.90;;;4.70;99.90;;;;;;4886024;29;20508;-78
2021/11/26 07:59:48;;;;;;;39.00;23.17;;;4.80;99.90;;;;;;4885356;29;20548;-77
2021/11/26 08:02:16;;;;;;;38.57;25.07;;;4.70;99.90;;;;;;4884739;29;20485;-78
2021/11/26 08:04:44;;;;;;;39.93;24.13;;;4.80;99.90;;;;;;4885947;29;21256;-79
2021/11/26 08:07:14;;;;;;;37.17;22.97;;;4.80;99.90;;;;;;4892195;29;20567;-78
2021/11/26 08:09:43;;;;;;;38.00;22.03;;;4.70;99.90;;;;;;4885730;29;20549;-78
2021/11/26 08:12:11;;;;;;;36.83;22.60;;;4.70;99.90;;;;;;4884764;29;20484;-78
2021/11/26 08:14:40;;;;;;;34.87;22.33;;;4.70;99.90;;;;;;4888766;29;20580;-78
2021/11/26 08:17:08;;;;;;;40.47;22.57;;;4.80;99.90;;;;;;4890391;29;20480;-78
2021/11/26 08:19:37;;;;;;;36.67;22.87;;;4.80;99.90;;;;;;4889510;29;20485;-79
2021/11/26 08:22:05;;;;;;;35.23;21.87;;;4.80;99.90;;;;;;4889320;29;20985;-78
2021/11/26 08:24:35;;;;;;;32.27;21.57;;;4.80;99.90;;;;;;4880717;29;20477;-78
2021/11/26 08:27:04;;;;;;;35.30;21.87;;;4.80;99.90;;;;;;4889953;29;20911;-79
2021/11/26 08:29:32;;;;;;;33.23;22.00;;;4.80;99.90;;;;;;4891224;29;20479;-78
2021/11/26 08:32:00;;;;;;;34.27;22.50;;;4.90;99.90;;;;;;4900987;29;20523;-79
2021/11/26 08:34:29;;;;;;;33.23;20.63;;;4.90;99.90;;;;;;4888840;29;20488;-78
2021/11/26 08:36:57;;;;;;;33.67;21.07;;;4.90;99.90;;;;;;4894937;29;20993;-78
2021/11/26 08:39:25;;;;;;;32.23;22.07;;;4.90;99.90;;;;;;4893666;29;20474;-78
2021/11/26 08:41:55;;;;;;;34.23;21.33;;;4.90;99.90;;;;;;4892675;29;20501;-78
2021/11/26 08:44:23;;;;;;;33.53;21.17;;;4.90;99.90;;;;;;4879364;29;20487;-79
2021/11/26 08:46:52;;;;;;;32.93;19.70;;;4.90;99.90;;;;;;4894300;29;20477;-80
2021/11/26 08:49:20;;;;;;;31.80;21.00;;;4.90;99.90;;;;;;4897973;29;20485;-79
2021/11/26 08:51:49;;;;;;;31.53;19.30;;;4.90;99.90;;;;;;4898886;29;20476;-79
2021/11/26 08:54:22;;;;;;;30.13;19.77;;;5.00;99.90;;;;;;4888911;29;20512;-78
2021/11/26 08:56:53;;;;;;;35.63;20.60;;;5.00;99.90;;;;;;4889071;29;20927;-79
2021/11/26 08:59:23;;;;;;;33.93;20.37;;;5.00;99.90;;;;;;4888779;29;20481;-79
2021/11/26 09:01:53;;;;;;;32.93;20.83;;;5.00;99.90;;;;;;4888711;29;20918;-79
2021/11/26 09:04:22;;;;;;;34.07;20.43;;;5.00;99.90;;;;;;4878261;29;21052;-79
2021/11/26 09:06:52;;;;;;;32.20;21.20;;;5.00;99.90;;;;;;4899739;29;20558;-79
2021/11/26 09:09:20;;;;;;;30.63;19.97;;;5.10;99.90;;;;;;4900849;29;21266;-79
2021/11/26 09:11:49;;;;;;;31.60;20.70;;;5.10;99.90;;;;;;4890696;29;20485;-81
2021/11/26 09:14:18;;;;;;;30.73;19.30;;;5.10;99.90;;;;;;4894403;29;20471;-79
2021/11/26 09:16:48;;;;;;;30.93;19.97;;;5.10;99.90;;;;;;4894020;29;20479;-78
2021/11/26 09:19:16;;;;;;;31.30;20.23;;;5.10;99.90;;;;;;4891634;29;20497;-80
2021/11/26 09:21:44;;;;;;;28.77;19.63;;;5.10;99.90;;;;;;4892739;29;20523;-79
2021/11/26 09:24:13;;;;;;;32.40;20.33;;;5.20;99.90;;;;;;4882434;29;20477;-80
2021/11/26 09:26:42;;;;;;;31.00;19.77;;;5.20;99.90;;;;;;4889790;29;20493;-79
2021/11/26 09:29:10;;;;;;;32.40;20.70;;;5.20;99.90;;;;;;4889930;29;20489;-78
2021/11/26 09:31:39;;;;;;;32.00;20.80;;;5.20;99.90;;;;;;4892749;29;21032;-79
2021/11/26 09:34:08;;;;;;;29.53;19.97;;;5.20;99.90;;;;;;4899192;29;20491;-79
2021/11/26 09:36:36;;;;;;;30.87;20.80;;;5.20;99.90;;;;;;4895202;29;20887;-79
2021/11/26 09:39:06;;;;;;;31.00;19.93;;;5.20;99.90;;;;;;4897609;29;20487;-79
2021/11/26 09:41:35;;;;;;;31.30;19.57;;;5.20;99.90;;;;;;4896811;29;20575;-80
2021/11/26 09:44:04;;;;;;;28.77;19.57;;;5.20;99.90;;;;;;4898187;29;20483;-79
2021/11/26 09:46:37;;;;;;;30.70;19.70;;;5.20;99.90;;;;;;4893281;29;20507;-79
2021/11/26 09:49:07;;;;;;;27.97;18.03;;;5.20;99.90;;;;;;4901880;29;20487;-79
2021/11/26 09:51:36;;;;;;;28.40;18.73;;;5.20;99.90;;;;;;4892238;29;21096;-80
2021/11/26 09:54:05;;;;;;;24.80;18.37;;;5.20;99.90;;;;;;4890527;29;21008;-79
2021/11/26 09:56:34;;;;;;;28.03;18.73;;;5.20;99.90;;;;;;4892525;29;20499;-78
2021/11/26 09:59:03;;;;;;;25.10;17.73;;;5.20;99.90;;;;;;4892406;29;21226;-79
2021/11/26 10:01:32;;;;;;;25.80;17.80;;;5.20;99.90;;;;;;4893965;29;20508;-80
2021/11/26 10:04:04;;;;;;;24.37;17.80;;;5.20;99.90;;;;;;4888419;29;20831;-79
2021/11/26 10:06:37;;;;;;;24.50;16.67;;;5.20;99.90;;;;;;4898905;29;20480;-79
2021/11/26 10:09:07;;;;;;;29.93;18.03;;;5.20;99.90;;;;;;4895788;29;20849;-80
2021/11/26 10:11:38;;;;;;;25.13;17.13;;;5.20;99.90;;;;;;4894304;29;20493;-80
2021/11/26 10:14:19;;;;;;;24.83;18.17;;;5.30;99.90;;;;;;4893958;29;20240;-79
2021/11/26 10:17:11;;;;;;;24.00;17.53;;;5.30;99.90;;;;;;4898572;29;21040;-79
2021/11/26 10:19:47;;;;;;;26.67;17.43;;;5.20;99.90;;;;;;4892283;29;21352;-80
2021/11/26 10:22:20;;;;;;;27.23;18.47;;;5.30;99.90;;;;;;4891709;29;20241;-80
2021/11/26 10:25:15;;;;;;;27.00;17.60;;;5.30;99.90;;;;;;4892616;29;20532;-78
2021/11/26 10:27:45;;;;;;;25.40;17.30;;;5.40;99.90;;;;;;4891600;29;20520;-80
2021/11/26 10:30:19;;;;;;;27.00;18.13;;;5.30;99.90;;;;;;4890971;29;20496;-80
2021/11/26 10:33:00;;;;;;;26.37;16.67;;;5.40;99.90;;;;;;4890343;29;20239;-79
2021/11/26 10:35:30;;;;;;;27.13;17.37;;;5.50;99.90;;;;;;4884599;29;20710;-79
2021/11/26 10:38:06;;;;;;;26.87;17.23;;;5.60;99.90;;;;;;4892060;29;20283;-78
2021/11/26 10:40:38;;;;;;;24.80;18.30;;;5.70;99.90;;;;;;4891785;29;20804;-79
2021/11/26 10:43:13;;;;;;;27.40;17.53;;;5.60;99.90;;;;;;4893026;29;20490;-78
2021/11/26 10:45:59;;;;;;;28.83;17.63;;;5.60;99.90;;;;;;4891583;29;21253;-79
2021/11/26 10:48:51;;;;;;;23.60;15.63;;;5.70;99.90;;;;;;4891567;29;20240;-78
2021/11/26 10:51:40;;;;;;;23.17;15.43;;;5.70;99.90;;;;;;4892237;29;20532;-78
2021/11/26 11:00:08;;;;;;;21.17;14.93;;;5.70;99.90;;;;;;4890125;29;20750;-77
2021/11/26 11:02:40;;;;;;;20.30;14.20;;;5.70;99.90;;;;;;4896261;29;20586;-78
2021/11/26 11:05:10;;;;;;;22.83;14.93;;;5.70;99.90;;;;;;4895818;29;20488;-79
2021/11/26 11:07:44;;;;;;;22.50;15.30;;;5.70;99.90;;;;;;4879867;29;20252;-78
2021/11/26 11:10:24;;;;;;;27.73;16.17;;;5.80;99.90;;;;;;4891293;29;20900;-78
2021/11/26 11:12:53;;;;;;;24.60;15.80;;;5.90;99.90;;;;;;4892957;29;20708;-79
2021/11/26 11:15:22;;;;;;;21.07;14.10;;;5.90;99.90;;;;;;4890482;29;20284;-78
2021/11/26 11:17:51;;;;;;;23.17;13.80;;;5.80;99.90;;;;;;4894804;29;20657;-79
2021/11/26 11:20:23;;;;;;;28.20;14.47;;;5.90;99.90;;;;;;4891926;29;20243;-78
2021/11/26 11:22:51;;;;;;;19.73;14.80;;;5.90;99.90;;;;;;4890467;29;20241;-79
2021/11/26 11:25:26;;;;;;;22.37;13.57;;;5.90;99.90;;;;;;4891476;29;20717;-80
2021/11/26 11:27:56;;;;;;;22.27;14.17;;;6.00;99.90;;;;;;4890783;29;20252;-78
2021/11/26 11:30:24;;;;;;;20.97;14.50;;;6.00;99.90;;;;;;4889517;29;20901;-78
2021/11/26 11:32:53;;;;;;;21.73;14.90;;;6.10;99.90;;;;;;4895630;29;20293;-78
2021/11/26 11:35:23;;;;;;;19.33;13.43;;;6.10;99.90;;;;;;4890931;29;20248;-78
2021/11/26 11:37:54;;;;;;;19.83;13.30;;;6.00;99.90;;;;;;4891526;29;20253;-77
2021/11/26 11:40:28;;;;;;;21.43;13.50;;;6.00;99.90;;;;;;4891132;29;20268;-78
2021/11/26 11:43:08;;;;;;;20.23;13.03;;;6.00;99.90;;;;;;4893226;29;20247;-78
2021/11/26 11:45:37;;;;;;;21.60;14.03;;;6.00;99.90;;;;;;4900361;29;20269;-77
2021/11/26 11:48:06;;;;;;;19.83;13.93;;;6.00;99.90;;;;;;4903806;29;20256;-77
2021/11/26 11:50:42;;;;;;;19.13;12.87;;;6.00;99.90;;;;;;4896666;29;20236;-79
2021/11/26 11:53:22;;;;;;;20.57;13.20;;;6.10;99.90;;;;;;4887187;29;20515;-78
2021/11/26 11:56:02;;;;;;;18.27;12.63;;;6.20;99.90;;;;;;4867940;29;20246;-80
2021/11/26 11:58:38;;;;;;;18.13;12.23;;;6.20;99.90;;;;;;4903646;29;20327;-77
2021/11/26 12:01:18;;;;;;;19.67;12.37;;;6.20;99.90;;;;;;4890780;29;20952;-79
2021/11/26 12:03:47;;;;;;;19.17;11.97;;;6.30;99.90;;;;;;4890023;29;20256;-76
2021/11/26 12:06:16;;;;;;;20.30;12.63;;;6.20;99.90;;;;;;4899799;29;20243;-78
2021/11/26 12:08:46;;;;;;;20.00;12.10;;;6.20;99.90;;;;;;4898526;29;20669;-79
2021/11/26 12:11:27;;;;;;;17.83;12.37;;;6.20;99.90;;;;;;4889868;29;20627;-77
2021/11/26 12:14:04;;;;;;;16.50;11.13;;;6.10;99.90;;;;;;4889760;29;20255;-78
2021/11/26 12:16:45;;;;;;;16.33;11.07;;;6.10;99.90;;;;;;4890735;29;20236;-78
2021/11/26 12:19:19;;;;;;;19.10;11.73;;;6.10;99.90;;;;;;4890023;29;20237;-78
2021/11/26 12:21:49;;;;;;;17.70;11.37;;;6.20;99.90;;;;;;4892971;29;20666;-77
2021/11/26 12:24:20;;;;;;;19.97;12.13;;;6.20;99.90;;;;;;4889080;29;20260;-80
2021/11/26 12:26:56;;;;;;;17.03;11.93;;;6.20;99.90;;;;;;4892474;29;20271;-82
2021/11/26 12:29:36;;;;;;;24.50;11.47;;;6.10;99.90;;;;;;4889965;29;20507;-81
2021/11/26 12:32:12;;;;;;;21.33;14.20;;;6.50;99.90;;;;;;4880528;29;20243;-80
2021/11/26 12:34:42;;;;;;;21.77;12.87;;;6.40;99.90;;;;;;4887226;29;20979;-81
2021/11/26 12:37:19;;;;;;;22.73;12.50;;;6.40;99.90;;;;;;4892933;29;20248;-78
2021/11/26 12:39:48;;;;;;;18.73;11.70;;;6.30;99.90;;;;;;4874903;29;20241;-79
2021/11/26 12:42:19;;;;;;;18.40;10.87;;;6.30;99.90;;;;;;4896106;29;20997;-80
2021/11/26 12:44:56;;;;;;;20.17;12.30;;;6.30;99.90;;;;;;4890038;29;20512;-80
2021/11/26 12:47:35;;;;;;;18.33;12.90;;;6.30;99.90;;;;;;4892272;29;20601;-80
2021/11/26 12:53:09;;;;;;;15.50;10.20;;;6.20;99.90;;;;;;4840347;29;20480;-79
2021/11/26 12:55:45;;;;;;;17.83;10.27;;;6.20;99.90;;;;;;4830530;29;20255;-80
2021/11/26 12:58:14;;;;;;;19.27;10.03;;;6.20;99.90;;;;;;4863324;29;20291;-80
2021/11/26 13:00:52;;;;;;;16.20;9.80;;;6.10;99.90;;;;;;4898286;29;20482;-79
2021/11/26 13:03:21;;;;;;;18.70;10.00;;;6.10;99.90;;;;;;4888106;29;20264;-79
2021/11/26 13:05:54;;;;;;;16.50;10.50;;;6.10;99.90;;;;;;4890016;29;20236;-78